Time;durP1;ratioP1;P1;durP2;ratioP2;P2;SDS_P1;SDS_P2;PMS_P1;PMS_P2;Temp;Humidity;BMP_temperature;BMP_pressure;BME280_temperature;BME280_humidity;BME280_pressure;Samples;Min_cycle;Max_cycle;Signal;HPM_P1;HPM_P2
2023/09/11 00:04:12;;;;;;;21.55;16.30;;;;;;;;;;10444161;28;20090;-82
2023/09/11 00:09:14;;;;;;;18.45;13.93;;;;;;;;;;10444076;28;20079;-83
2023/09/11 00:14:15;;;;;;;26.02;18.40;;;;;;;;;;10444267;28;20037;-82
2023/09/11 00:19:16;;;;;;;20.02;14.77;;;;;;;;;;10442656;28;20040;-81
2023/09/11 00:24:17;;;;;;;20.08;14.70;;;;;;;;;;10441561;28;20045;-82
2023/09/11 00:29:18;;;;;;;21.00;16.02;;;;;;;;;;10441672;28;20151;-84
2023/09/11 00:34:19;;;;;;;21.40;14.20;;;;;;;;;;10443496;28;20044;-81
2023/09/11 00:39:20;;;;;;;19.23;13.80;;;;;;;;;;10443333;28;20025;-82
2023/09/11 00:44:21;;;;;;;18.02;12.98;;;;;;;;;;10443440;28;20052;-81
2023/09/11 00:49:22;;;;;;;17.35;13.05;;;;;;;;;;10442025;28;20055;-83
2023/09/11 00:54:24;;;;;;;18.55;12.65;;;;;;;;;;10442988;28;20044;-84
2023/09/11 00:59:25;;;;;;;14.88;11.75;;;;;;;;;;10442903;28;20033;-82
2023/09/11 01:04:26;;;;;;;20.40;14.70;;;;;;;;;;10441888;28;20032;-83
2023/09/11 01:09:27;;;;;;;26.85;19.80;;;;;;;;;;10442314;28;20033;-83
2023/09/11 01:14:28;;;;;;;27.15;19.83;;;;;;;;;;10442347;28;20041;-82
2023/09/11 01:19:48;;;;;;;30.05;20.23;;;;;;;;;;10441965;28;20033;-83
2023/09/11 01:25:07;;;;;;;21.20;15.85;;;;;;;;;;10445107;28;20103;-82
2023/09/11 01:30:10;;;;;;;32.83;25.33;;;;;;;;;;10449956;28;20017;-82
2023/09/11 01:35:11;;;;;;;22.00;16.70;;;;;;;;;;10448733;28;20128;-82
2023/09/11 01:40:12;;;;;;;28.17;21.50;;;;;;;;;;10450597;28;20627;-82
2023/09/11 01:45:14;;;;;;;27.63;21.00;;;;;;;;;;10448393;28;20029;-82
2023/09/11 01:50:16;;;;;;;22.73;17.25;;;;;;;;;;10448295;28;20029;-85
2023/09/11 01:55:17;;;;;;;39.28;28.42;;;;;;;;;;10449648;28;20068;-84
2023/09/11 02:00:19;;;;;;;35.55;26.38;;;;;;;;;;10448615;28;20036;-82
2023/09/11 02:05:20;;;;;;;41.38;27.65;;;;;;;;;;10448550;28;20025;-82
2023/09/11 02:10:21;;;;;;;24.98;16.98;;;;;;;;;;10448297;28;20033;-82
2023/09/11 02:15:22;;;;;;;28.52;22.75;;;;;;;;;;10447877;28;20048;-82
2023/09/11 02:20:23;;;;;;;59.65;35.78;;;;;;;;;;10448568;28;20790;-82
2023/09/11 02:25:24;;;;;;;46.72;28.33;;;;;;;;;;10447320;28;20056;-82
2023/09/11 02:30:25;;;;;;;40.45;26.13;;;;;;;;;;10447627;28;20498;-82
2023/09/11 02:35:26;;;;;;;52.28;34.20;;;;;;;;;;10446200;28;20033;-83
2023/09/11 02:40:27;;;;;;;40.65;29.52;;;;;;;;;;10447787;28;20496;-83
2023/09/11 02:45:28;;;;;;;46.78;31.20;;;;;;;;;;10446653;28;20029;-84
2023/09/11 02:50:29;;;;;;;36.40;26.58;;;;;;;;;;10446913;28;20032;-85
2023/09/11 02:55:30;;;;;;;34.00;24.35;;;;;;;;;;10446967;28;20101;-84
2023/09/11 03:00:38;;;;;;;35.92;26.63;;;;;;;;;;10447702;28;20090;-84
2023/09/11 03:05:39;;;;;;;37.10;25.77;;;;;;;;;;10439168;28;20048;-84
2023/09/11 03:10:40;;;;;;;22.05;17.38;;;;;;;;;;10445927;28;20859;-83
2023/09/11 03:15:44;;;;;;;19.90;16.60;;;;;;;;;;10443876;28;20102;-81
2023/09/11 03:20:45;;;;;;;26.95;20.15;;;;;;;;;;10445543;28;20120;-85
2023/09/11 03:25:47;;;;;;;28.17;20.90;;;;;;;;;;10445632;28;20049;-84
2023/09/11 03:30:48;;;;;;;36.35;27.60;;;;;;;;;;10444957;28;20041;-84
2023/09/11 03:35:49;;;;;;;35.22;21.80;;;;;;;;;;10445865;28;20439;-83
2023/09/11 03:40:50;;;;;;;39.22;28.38;;;;;;;;;;10445177;28;20078;-80
2023/09/11 03:45:51;;;;;;;34.33;26.30;;;;;;;;;;10442474;28;20131;-84
2023/09/11 03:50:52;;;;;;;38.13;27.27;;;;;;;;;;10445211;28;20116;-83
2023/09/11 03:55:53;;;;;;;33.10;22.33;;;;;;;;;;10444169;28;20107;-86
2023/09/11 04:00:54;;;;;;;25.17;17.55;;;;;;;;;;10443723;28;20029;-85
2023/09/11 04:05:55;;;;;;;21.00;15.88;;;;;;;;;;10444408;28;20492;-85
2023/09/11 04:10:56;;;;;;;25.52;18.17;;;;;;;;;;10444475;28;20071;-82
2023/09/11 04:15:57;;;;;;;28.60;20.67;;;;;;;;;;10443083;28;20056;-85
2023/09/11 04:21:03;;;;;;;29.60;22.65;;;;;;;;;;10441285;28;20037;-86
2023/09/11 04:26:06;;;;;;;36.25;27.75;;;;;;;;;;10441552;28;20087;-86
2023/09/11 04:31:08;;;;;;;34.45;25.95;;;;;;;;;;10442748;28;20017;-84
2023/09/11 04:36:09;;;;;;;37.08;28.98;;;;;;;;;;10443276;28;20033;-82
2023/09/11 04:41:10;;;;;;;35.75;27.17;;;;;;;;;;10444048;28;20029;-86
2023/09/11 04:46:11;;;;;;;36.88;26.77;;;;;;;;;;10443035;28;20037;-83
2023/09/11 04:51:12;;;;;;;35.17;27.15;;;;;;;;;;10441091;28;20365;-84
2023/09/11 04:56:13;;;;;;;37.10;26.63;;;;;;;;;;10449449;28;20063;-84
2023/09/11 05:01:14;;;;;;;34.75;26.02;;;;;;;;;;10444922;28;20029;-84
2023/09/11 05:06:15;;;;;;;47.92;33.13;;;;;;;;;;10449431;28;20021;-84
2023/09/11 05:11:16;;;;;;;35.80;27.52;;;;;;;;;;10432160;28;20116;-84
2023/09/11 05:16:18;;;;;;;36.92;27.17;;;;;;;;;;10450195;28;20043;-83
2023/09/11 05:21:19;;;;;;;39.47;27.15;;;;;;;;;;10449463;28;20739;-85
2023/09/11 05:26:20;;;;;;;40.67;27.77;;;;;;;;;;10450455;28;20051;-85
2023/09/11 05:31:21;;;;;;;43.92;27.60;;;;;;;;;;10450346;28;20108;-83
2023/09/11 05:36:22;;;;;;;41.72;27.48;;;;;;;;;;10448701;28;20101;-82
2023/09/11 05:41:25;;;;;;;42.38;26.88;;;;;;;;;;10442265;28;20036;-85
2023/09/11 05:46:26;;;;;;;37.33;25.15;;;;;;;;;;10443139;28;20035;-83
2023/09/11 05:51:27;;;;;;;38.10;26.15;;;;;;;;;;10447594;28;20033;-84
2023/09/11 05:56:28;;;;;;;37.75;27.13;;;;;;;;;;10449159;28;20060;-83
2023/09/11 06:01:29;;;;;;;32.42;24.27;;;;;;;;;;10448914;28;20033;-82
2023/09/11 06:06:30;;;;;;;41.45;26.95;;;;;;;;;;10448340;28;20778;-84
2023/09/11 06:11:31;;;;;;;32.47;25.65;;;;;;;;;;10430481;28;20040;-83
2023/09/11 06:16:32;;;;;;;36.17;26.55;;;;;;;;;;10434242;28;20053;-85
2023/09/11 06:21:33;;;;;;;43.67;32.90;;;;;;;;;;10445807;28;20488;-85
2023/09/11 06:26:34;;;;;;;39.60;28.25;;;;;;;;;;10442341;28;20613;-83
2023/09/11 06:31:35;;;;;;;39.85;28.17;;;;;;;;;;10435488;28;20044;-84
2023/09/11 06:36:36;;;;;;;35.10;25.45;;;;;;;;;;10448283;28;20037;-86
2023/09/11 06:41:37;;;;;;;31.77;23.45;;;;;;;;;;10447629;28;20399;-83
2023/09/11 06:46:38;;;;;;;32.05;24.35;;;;;;;;;;10439736;28;20029;-83
2023/09/11 06:51:39;;;;;;;34.67;21.85;;;;;;;;;;10430546;28;20032;-85
2023/09/11 06:56:41;;;;;;;48.08;23.25;;;;;;;;;;10447484;28;20507;-83
2023/09/11 07:01:42;;;;;;;33.50;22.52;;;;;;;;;;10447085;28;20407;-84
2023/09/11 07:06:43;;;;;;;27.15;21.63;;;;;;;;;;10446062;28;20029;-83
2023/09/11 07:11:44;;;;;;;26.95;19.60;;;;;;;;;;10439879;28;20041;-85
2023/09/11 07:16:45;;;;;;;29.00;19.95;;;;;;;;;;10440054;28;20060;-82
2023/09/11 07:21:46;;;;;;;27.00;19.17;;;;;;;;;;10432233;28;20140;-84
2023/09/11 07:26:47;;;;;;;27.58;21.67;;;;;;;;;;10445103;28;20033;-83
2023/09/11 07:31:48;;;;;;;23.92;17.75;;;;;;;;;;10431297;28;20039;-83
2023/09/11 07:36:49;;;;;;;22.00;17.00;;;;;;;;;;10445198;28;20021;-82
2023/09/11 07:41:50;;;;;;;30.02;19.23;;;;;;;;;;10448290;28;20037;-83
2023/09/11 07:46:51;;;;;;;20.23;15.40;;;;;;;;;;10443417;28;20044;-83
2023/09/11 07:51:52;;;;;;;24.98;14.80;;;;;;;;;;10444123;28;20427;-82
2023/09/11 07:56:53;;;;;;;22.55;16.02;;;;;;;;;;10443379;28;20044;-83
2023/09/11 08:01:54;;;;;;;18.98;13.85;;;;;;;;;;10439138;28;20020;-85
2023/09/11 08:06:55;;;;;;;20.77;13.35;;;;;;;;;;10434655;28;20033;-82
2023/09/11 08:12:08;;;;;;;18.15;12.52;;;;;;;;;;10426876;28;20021;-84
2023/09/11 08:17:45;;;;;;;16.67;11.68;;;;;;;;;;10407383;28;20091;-81
2023/09/11 08:23:23;;;;;;;17.77;10.57;;;;;;;;;;10403462;28;20110;-83
2023/09/11 08:28:24;;;;;;;15.77;11.10;;;;;;;;;;10431475;28;20224;-83
2023/09/11 08:33:26;;;;;;;15.73;10.68;;;;;;;;;;10444914;28;20040;-82
2023/09/11 08:38:36;;;;;;;15.20;9.98;;;;;;;;;;10445764;28;20047;-87
2023/09/11 08:43:39;;;;;;;15.13;9.55;;;;;;;;;;10443286;28;20457;-82
2023/09/11 08:48:43;;;;;;;17.85;10.13;;;;;;;;;;10447391;28;20024;-82
2023/09/11 08:53:46;;;;;;;14.65;10.25;;;;;;;;;;10440846;28;20724;-82
2023/09/11 08:58:50;;;;;;;17.48;10.50;;;;;;;;;;10445321;28;20023;-82
2023/09/11 09:03:51;;;;;;;11.50;8.88;;;;;;;;;;10440848;28;20037;-84
2023/09/11 09:08:53;;;;;;;15.35;9.48;;;;;;;;;;10443084;28;20025;-85
2023/09/11 09:13:55;;;;;;;12.70;8.68;;;;;;;;;;10432587;28;20032;-83
2023/09/11 09:18:55;;;;;;;14.77;8.95;;;;;;;;;;10442706;28;20385;-82
2023/09/11 09:24:26;;;;;;;15.82;9.13;;;;;;;;;;10440769;28;20053;-83
2023/09/11 09:29:36;;;;;;;11.32;7.72;;;;;;;;;;10440453;28;20112;-84
2023/09/11 09:34:38;;;;;;;9.60;7.03;;;;;;;;;;10443512;28;20102;-83
2023/09/11 09:40:00;;;;;;;10.05;7.70;;;;;;;;;;10441972;28;20084;-83
2023/09/11 09:45:02;;;;;;;9.23;6.32;;;;;;;;;;10440908;28;20028;-83
2023/09/11 09:50:03;;;;;;;10.90;8.23;;;;;;;;;;10452561;28;20092;-82
2023/09/11 09:55:08;;;;;;;11.50;7.07;;;;;;;;;;10450470;28;20049;-87
2023/09/11 10:00:16;;;;;;;10.95;7.13;;;;;;;;;;10441813;28;20028;-83
2023/09/11 10:05:20;;;;;;;14.93;7.22;;;;;;;;;;10445946;28;20043;-84
2023/09/11 10:10:29;;;;;;;10.95;6.55;;;;;;;;;;10443381;28;20029;-85
2023/09/11 10:15:30;;;;;;;9.18;6.55;;;;;;;;;;10441868;28;20033;-86
2023/09/11 10:20:32;;;;;;;9.15;6.35;;;;;;;;;;10439844;28;20524;-84
2023/09/11 10:25:34;;;;;;;12.30;7.07;;;;;;;;;;10442681;28;20066;-84
2023/09/11 10:30:40;;;;;;;9.70;6.60;;;;;;;;;;10446360;28;20527;-84
2023/09/11 10:35:41;;;;;;;7.65;6.93;;;;;;;;;;10447604;28;20502;-83
2023/09/11 10:40:43;;;;;;;9.80;7.53;;;;;;;;;;10440255;28;20482;-87
2023/09/11 10:45:44;;;;;;;13.23;7.38;;;;;;;;;;10447498;28;20044;-85
2023/09/11 10:50:48;;;;;;;9.35;7.15;;;;;;;;;;10446378;28;20047;-85
2023/09/11 10:55:52;;;;;;;9.93;6.93;;;;;;;;;;10442598;28;20091;-83
2023/09/11 11:00:54;;;;;;;9.18;7.22;;;;;;;;;;10443470;28;20043;-83
2023/09/11 11:05:55;;;;;;;10.95;6.63;;;;;;;;;;10436686;28;20033;-84
2023/09/11 11:10:57;;;;;;;10.48;7.63;;;;;;;;;;10444362;28;20509;-83
2023/09/11 11:16:24;;;;;;;10.30;7.40;;;;;;;;;;10443424;28;20043;-84
2023/09/11 11:21:37;;;;;;;11.63;6.72;;;;;;;;;;10452525;28;20045;-85
2023/09/11 11:26:42;;;;;;;9.50;6.80;;;;;;;;;;10440722;28;20057;-84
2023/09/11 11:31:44;;;;;;;10.63;7.15;;;;;;;;;;10434132;28;20103;-83
2023/09/11 11:36:45;;;;;;;9.52;7.45;;;;;;;;;;10447111;28;20041;-83
2023/09/11 11:41:46;;;;;;;9.80;6.70;;;;;;;;;;10449214;28;20060;-85
2023/09/11 11:46:47;;;;;;;10.18;6.97;;;;;;;;;;10445311;28;20420;-83
2023/09/11 11:51:48;;;;;;;9.10;6.53;;;;;;;;;;10445232;28;20036;-84
2023/09/11 11:56:57;;;;;;;8.43;7.07;;;;;;;;;;10447834;28;20037;-86
2023/09/11 12:01:58;;;;;;;11.63;7.05;;;;;;;;;;10441942;28;20484;-84
2023/09/11 12:06:59;;;;;;;7.43;6.47;;;;;;;;;;10435350;28;20061;-86
2023/09/11 12:12:00;;;;;;;9.30;6.65;;;;;;;;;;10436928;28;20029;-83
2023/09/11 12:17:01;;;;;;;9.57;6.35;;;;;;;;;;10447872;28;20094;-83
2023/09/11 12:22:02;;;;;;;14.15;7.00;;;;;;;;;;10448519;28;20029;-84
2023/09/11 12:27:04;;;;;;;10.52;6.70;;;;;;;;;;10444221;28;20684;-83
2023/09/11 12:37:46;;;;;;;10.32;6.88;;;;;;;;;;10433595;28;20339;-84
2023/09/11 12:42:47;;;;;;;11.05;6.32;;;;;;;;;;10430193;28;20032;-85
2023/09/11 12:47:48;;;;;;;10.18;6.43;;;;;;;;;;10422137;28;20468;-82
2023/09/11 12:52:49;;;;;;;7.95;6.28;;;;;;;;;;10434779;28;20521;-82
2023/09/11 12:57:51;;;;;;;9.07;6.32;;;;;;;;;;10441734;28;20036;-80
2023/09/11 13:02:55;;;;;;;9.93;6.80;;;;;;;;;;10443453;28;20127;-83
2023/09/11 13:07:59;;;;;;;10.82;7.15;;;;;;;;;;10443454;28;20082;-80
2023/09/11 13:13:00;;;;;;;10.57;6.65;;;;;;;;;;10438909;28;20036;-81
2023/09/11 13:18:02;;;;;;;10.40;6.90;;;;;;;;;;10435505;28;20037;-83
2023/09/11 13:23:03;;;;;;;9.05;6.50;;;;;;;;;;10447072;28;20746;-85
2023/09/11 13:28:04;;;;;;;9.35;6.97;;;;;;;;;;10448186;28;20036;-82
2023/09/11 13:33:05;;;;;;;11.57;6.75;;;;;;;;;;10448043;28;20028;-80
2023/09/11 13:38:06;;;;;;;8.00;6.38;;;;;;;;;;10448719;28;20069;-80
2023/09/11 13:43:07;;;;;;;11.98;7.30;;;;;;;;;;10447469;28;20484;-83
2023/09/11 13:48:11;;;;;;;13.70;7.22;;;;;;;;;;10438137;28;20037;-81
2023/09/11 13:53:12;;;;;;;8.77;6.45;;;;;;;;;;10441807;28;20044;-82
2023/09/11 13:58:13;;;;;;;9.95;7.28;;;;;;;;;;10448303;28;20044;-84
2023/09/11 14:03:14;;;;;;;9.10;7.50;;;;;;;;;;10446077;28;20033;-81
2023/09/11 14:08:15;;;;;;;8.43;7.50;;;;;;;;;;10449634;28;20033;-80
2023/09/11 14:13:19;;;;;;;9.13;7.32;;;;;;;;;;10448133;28;20480;-81
2023/09/11 14:18:21;;;;;;;8.25;7.20;;;;;;;;;;10441969;28;20021;-82
2023/09/11 14:23:22;;;;;;;12.35;7.60;;;;;;;;;;10447865;28;20492;-78
2023/09/11 14:28:23;;;;;;;11.45;9.20;;;;;;;;;;10445420;28;20037;-82
2023/09/11 14:33:25;;;;;;;14.82;7.85;;;;;;;;;;10447420;28;20090;-80
2023/09/11 14:38:26;;;;;;;11.10;7.07;;;;;;;;;;10430047;28;20075;-83
2023/09/11 14:43:27;;;;;;;8.85;7.05;;;;;;;;;;10447176;28;20136;-83
2023/09/11 14:48:28;;;;;;;12.77;8.38;;;;;;;;;;10440048;28;20045;-80
2023/09/11 14:53:39;;;;;;;12.25;8.70;;;;;;;;;;10447657;28;20044;-79
2023/09/11 14:58:40;;;;;;;12.50;9.05;;;;;;;;;;10446007;28;20473;-80
2023/09/11 15:03:41;;;;;;;16.73;9.30;;;;;;;;;;10434860;28;20033;-80
2023/09/11 15:08:42;;;;;;;8.40;6.95;;;;;;;;;;10444875;28;20025;-82
2023/09/11 15:13:43;;;;;;;10.73;7.97;;;;;;;;;;10440393;28;20045;-78
2023/09/11 15:18:44;;;;;;;9.05;7.35;;;;;;;;;;10439157;28;20127;-79
2023/09/11 15:23:45;;;;;;;17.75;8.68;;;;;;;;;;10445353;28;20110;-78
2023/09/11 15:28:46;;;;;;;15.52;8.45;;;;;;;;;;10444709;28;20025;-79
2023/09/11 15:33:47;;;;;;;38.42;16.92;;;;;;;;;;10444923;28;20033;-79
2023/09/11 15:38:48;;;;;;;76.97;25.58;;;;;;;;;;10442674;28;20029;-78
2023/09/11 15:43:49;;;;;;;24.77;12.43;;;;;;;;;;10434316;28;20053;-77
2023/09/11 15:48:50;;;;;;;26.52;13.10;;;;;;;;;;10426316;28;20813;-78
2023/09/11 15:53:53;;;;;;;27.25;16.38;;;;;;;;;;10443506;28;20056;-82
2023/09/11 15:58:54;;;;;;;27.90;14.77;;;;;;;;;;10442374;28;20029;-82
2023/09/11 16:03:55;;;;;;;25.42;13.48;;;;;;;;;;10439222;28;20715;-82
2023/09/11 16:08:56;;;;;;;21.92;13.25;;;;;;;;;;10444144;28;20017;-81
2023/09/11 16:13:57;;;;;;;13.13;9.80;;;;;;;;;;10437994;28;20038;-84
2023/09/11 16:18:58;;;;;;;11.50;9.40;;;;;;;;;;10438429;28;20562;-78
2023/09/11 16:23:59;;;;;;;16.27;10.20;;;;;;;;;;10435847;28;20057;-82
2023/09/11 16:29:00;;;;;;;12.95;9.32;;;;;;;;;;10436263;28;20021;-83
2023/09/11 16:34:01;;;;;;;16.08;9.77;;;;;;;;;;10434761;28;20044;-82
2023/09/11 16:39:02;;;;;;;14.48;10.15;;;;;;;;;;10440973;28;20671;-81
2023/09/11 16:44:04;;;;;;;12.80;10.10;;;;;;;;;;10435706;28;20141;-79
2023/09/11 16:49:05;;;;;;;12.27;9.57;;;;;;;;;;10441242;28;20033;-81
2023/09/11 16:54:06;;;;;;;14.30;10.00;;;;;;;;;;10449052;28;20476;-81
2023/09/11 16:59:07;;;;;;;12.43;9.68;;;;;;;;;;10448055;28;20028;-83
2023/09/11 17:04:08;;;;;;;17.38;9.52;;;;;;;;;;10449567;28;20124;-80
2023/09/11 17:09:09;;;;;;;12.48;9.15;;;;;;;;;;10439446;28;20032;-80
2023/09/11 17:14:10;;;;;;;13.93;9.80;;;;;;;;;;10444109;28;20037;-80
2023/09/11 17:19:11;;;;;;;15.60;9.73;;;;;;;;;;10446579;28;20032;-79
2023/09/11 17:24:12;;;;;;;13.20;9.93;;;;;;;;;;10437949;28;20052;-80
2023/09/11 17:29:13;;;;;;;14.55;10.23;;;;;;;;;;10424116;28;20029;-81
2023/09/11 17:34:15;;;;;;;12.27;9.68;;;;;;;;;;10444484;28;20032;-82
2023/09/11 17:39:17;;;;;;;18.23;10.73;;;;;;;;;;10447004;28;20674;-85
2023/09/11 17:44:18;;;;;;;14.43;10.40;;;;;;;;;;10442651;28;20078;-80
2023/09/11 17:49:19;;;;;;;11.82;10.00;;;;;;;;;;10447414;28;20478;-78
2023/09/11 17:54:20;;;;;;;12.40;10.70;;;;;;;;;;10447565;28;20037;-82
2023/09/11 17:59:22;;;;;;;18.33;11.05;;;;;;;;;;10444824;28;20083;-79
2023/09/11 18:04:23;;;;;;;18.48;11.88;;;;;;;;;;10443590;28;20964;-81
2023/09/11 18:09:24;;;;;;;13.93;10.85;;;;;;;;;;10449198;28;20051;-81
2023/09/11 18:14:25;;;;;;;17.67;12.52;;;;;;;;;;10435946;28;20044;-81
2023/09/11 18:19:26;;;;;;;20.90;13.63;;;;;;;;;;10448379;28;20029;-82
2023/09/11 18:24:27;;;;;;;16.70;12.68;;;;;;;;;;10448658;28;20568;-80
2023/09/11 18:29:28;;;;;;;15.95;11.75;;;;;;;;;;10440850;28;20114;-81
2023/09/11 18:34:29;;;;;;;16.20;11.43;;;;;;;;;;10444042;28;20044;-81
2023/09/11 18:39:30;;;;;;;17.38;12.20;;;;;;;;;;10444508;28;20033;-80
2023/09/11 18:44:32;;;;;;;16.80;12.52;;;;;;;;;;10429080;28;20045;-82
2023/09/11 18:49:33;;;;;;;16.05;12.13;;;;;;;;;;10445923;28;20037;-81
2023/09/11 18:54:34;;;;;;;16.95;11.73;;;;;;;;;;10447520;28;20480;-80
2023/09/11 19:05:15;;;;;;;15.90;11.48;;;;;;;;;;10444566;28;20481;-81
2023/09/11 19:10:16;;;;;;;17.90;14.05;;;;;;;;;;10447193;28;20400;-80
2023/09/11 19:15:17;;;;;;;20.73;14.73;;;;;;;;;;10442601;28;20028;-81
2023/09/11 19:20:18;;;;;;;25.15;16.60;;;;;;;;;;10447124;28;20137;-81
2023/09/11 19:25:19;;;;;;;35.53;23.35;;;;;;;;;;10432579;28;20048;-84
2023/09/11 19:30:20;;;;;;;47.00;29.90;;;;;;;;;;10442621;28;20361;-85
2023/09/11 19:35:21;;;;;;;48.65;32.35;;;;;;;;;;10444001;28;20040;-82
2023/09/11 19:40:22;;;;;;;26.73;18.27;;;;;;;;;;10444099;28;20036;-81
2023/09/11 19:45:23;;;;;;;39.28;27.65;;;;;;;;;;10443285;28;20957;-82
2023/09/11 19:50:24;;;;;;;34.63;24.65;;;;;;;;;;10443566;28;20492;-81
2023/09/11 19:55:25;;;;;;;24.52;17.70;;;;;;;;;;10442349;28;20040;-81
2023/09/11 20:00:26;;;;;;;30.08;19.52;;;;;;;;;;10443025;28;20408;-82
2023/09/11 20:05:27;;;;;;;22.20;15.93;;;;;;;;;;10432978;28;20044;-81
2023/09/11 20:10:28;;;;;;;22.98;16.02;;;;;;;;;;10444131;28;20041;-81
2023/09/11 20:15:30;;;;;;;25.38;16.77;;;;;;;;;;10439872;28;20036;-83
2023/09/11 20:20:31;;;;;;;21.08;15.32;;;;;;;;;;10436316;28;20540;-81
2023/09/11 20:25:32;;;;;;;20.63;15.73;;;;;;;;;;10438235;28;20136;-82
2023/09/11 20:30:36;;;;;;;22.92;16.30;;;;;;;;;;10439655;28;20568;-83
2023/09/11 20:35:37;;;;;;;24.10;16.60;;;;;;;;;;10440603;28;20079;-82
2023/09/11 20:40:38;;;;;;;20.35;14.93;;;;;;;;;;10438622;28;20050;-82
2023/09/11 20:45:39;;;;;;;18.95;14.05;;;;;;;;;;10438180;28;20104;-82
2023/09/11 20:50:40;;;;;;;17.83;13.93;;;;;;;;;;10435787;28;20388;-84
2023/09/11 20:55:41;;;;;;;18.25;13.70;;;;;;;;;;10427815;28;20041;-83
2023/09/11 21:00:42;;;;;;;19.63;13.82;;;;;;;;;;10429844;28;20075;-83
2023/09/11 21:05:43;;;;;;;16.45;12.25;;;;;;;;;;10428700;28;20034;-82
2023/09/11 21:10:44;;;;;;;17.33;12.25;;;;;;;;;;10440141;28;20029;-84
2023/09/11 21:15:45;;;;;;;16.25;12.85;;;;;;;;;;10441162;28;20037;-82
2023/09/11 21:20:46;;;;;;;19.65;14.27;;;;;;;;;;10441486;28;20086;-83
2023/09/11 21:25:47;;;;;;;15.88;12.70;;;;;;;;;;10441304;28;20052;-85
2023/09/11 21:30:49;;;;;;;19.15;13.98;;;;;;;;;;10439638;28;20899;-83
2023/09/11 21:35:50;;;;;;;19.08;13.88;;;;;;;;;;10441911;28;20048;-82
2023/09/11 21:40:53;;;;;;;16.85;13.07;;;;;;;;;;10442928;28;20061;-82
2023/09/11 21:45:54;;;;;;;17.67;13.00;;;;;;;;;;10448262;28;20070;-85
2023/09/11 21:50:55;;;;;;;20.60;13.75;;;;;;;;;;10449798;28;20029;-82
2023/09/11 21:55:56;;;;;;;19.83;14.60;;;;;;;;;;10448539;28;20404;-82
2023/09/11 22:00:57;;;;;;;23.35;16.88;;;;;;;;;;10448753;28;20040;-83
2023/09/11 22:05:58;;;;;;;20.02;15.55;;;;;;;;;;10448477;28;20029;-85
2023/09/11 22:10:59;;;;;;;18.42;14.35;;;;;;;;;;10448589;28;20036;-82
2023/09/11 22:16:00;;;;;;;18.15;12.85;;;;;;;;;;10446853;28;20120;-83
2023/09/11 22:21:01;;;;;;;19.10;14.85;;;;;;;;;;10448146;28;20423;-83
2023/09/11 22:26:02;;;;;;;18.88;13.60;;;;;;;;;;10441273;28;20603;-82
2023/09/11 22:31:03;;;;;;;21.95;16.55;;;;;;;;;;10447021;28;20171;-83
2023/09/11 22:36:04;;;;;;;23.88;17.98;;;;;;;;;;10447653;28;20041;-82
2023/09/11 22:41:05;;;;;;;27.67;19.85;;;;;;;;;;10445654;28;20036;-85
2023/09/11 22:46:06;;;;;;;31.27;23.05;;;;;;;;;;10444694;28;20036;-85
2023/09/11 22:51:07;;;;;;;32.38;24.67;;;;;;;;;;10444938;28;20435;-85
2023/09/11 22:56:08;;;;;;;32.13;23.35;;;;;;;;;;10445398;28;20037;-83
2023/09/11 23:01:16;;;;;;;33.92;23.73;;;;;;;;;;10437632;28;20033;-85
2023/09/11 23:06:17;;;;;;;21.20;15.45;;;;;;;;;;10445890;28;20536;-85
2023/09/11 23:11:18;;;;;;;26.13;19.10;;;;;;;;;;10446509;28;20039;-82
2023/09/11 23:16:19;;;;;;;24.98;19.48;;;;;;;;;;10445299;28;20033;-83
2023/09/11 23:21:20;;;;;;;26.83;19.85;;;;;;;;;;10446312;28;20488;-83
2023/09/11 23:26:21;;;;;;;30.05;19.75;;;;;;;;;;10445091;28;20060;-82
2023/09/11 23:31:22;;;;;;;33.63;24.48;;;;;;;;;;10444425;28;20063;-82
2023/09/11 23:36:23;;;;;;;27.65;20.13;;;;;;;;;;10435172;28;20037;-83
2023/09/11 23:41:25;;;;;;;33.00;24.02;;;;;;;;;;10443529;28;20082;-82
2023/09/11 23:46:28;;;;;;;24.50;18.40;;;;;;;;;;10443905;28;20025;-85
2023/09/11 23:51:33;;;;;;;23.90;18.25;;;;;;;;;;10445245;28;20500;-85
2023/09/11 23:56:34;;;;;;;31.52;24.80;;;;;;;;;;10444179;28;20040;-85
